createdAt,value
2023-02-18T00:00:26.215Z,101962.88
2023-02-18T00:02:58.301Z,101953.88
2023-02-18T00:05:30.569Z,101958.97
2023-02-18T00:08:05.626Z,101954.84
2023-02-18T00:10:37.619Z,101958.28
2023-02-18T00:13:09.692Z,101956.69
2023-02-18T00:15:41.763Z,101959.31
2023-02-18T00:18:13.761Z,101960.97
2023-02-18T00:20:45.734Z,101954.91
2023-02-18T00:23:17.696Z,101958.44
2023-02-18T00:25:49.727Z,101962.03
2023-02-18T00:28:21.716Z,101974.28
2023-02-18T00:30:53.826Z,101973.34
2023-02-18T00:33:25.825Z,101967.31
2023-02-18T00:36:07.175Z,101969.47
2023-02-18T00:38:39.781Z,101981.63
2023-02-18T00:41:11.972Z,101979.88
2023-02-18T00:43:44.275Z,101982.75
2023-02-18T00:46:16.909Z,101963.81
2023-02-18T00:48:48.978Z,101969.75
2023-02-18T00:51:21.647Z,101965.56
2023-02-18T00:53:54.010Z,101967.41
2023-02-18T00:56:26.028Z,101967.41
2023-02-18T00:58:57.985Z,101958.88
2023-02-18T01:01:30.241Z,101957.06
2023-02-18T01:04:02.228Z,101951.78
2023-02-18T01:06:34.467Z,101951.09
2023-02-18T01:09:06.989Z,101949.56
2023-02-18T01:11:39.092Z,101949.56
2023-02-18T01:14:11.086Z,101944.34
2023-02-18T01:16:43.060Z,101944.34
2023-02-18T01:19:15.097Z,101935.47
2023-02-18T01:21:48.099Z,101947.72
2023-02-18T01:24:20.129Z,101940.78
2023-02-18T01:26:52.482Z,101933.84
2023-02-18T01:29:24.672Z,101932.16
2023-02-18T01:31:56.718Z,101929.78
2023-02-18T01:34:28.730Z,101923.75
2023-02-18T01:37:00.990Z,101928.22
2023-02-18T01:39:33.037Z,101929.84
2023-02-18T01:42:05.546Z,101924.56
2023-02-18T01:44:37.542Z,101927.06
2023-02-18T01:47:09.611Z,101915.72
2023-02-18T01:49:44.892Z,101905.81
2023-02-18T01:52:22.429Z,101907.75
2023-02-18T01:54:57.698Z,101915.72
2023-02-18T01:57:36.904Z,101915.66
2023-02-18T02:00:14.982Z,101906.13
2023-02-18T02:02:48.791Z,101899.75
2023-02-18T02:05:22.302Z,101904.41
2023-02-18T02:07:55.669Z,101921.69
2023-02-18T02:11:02.295Z,101926.00
2023-02-18T02:13:44.741Z,101921.75
2023-02-18T02:16:40.715Z,101931.31
2023-02-18T02:19:47.148Z,101921.06
2023-02-18T02:22:46.439Z,101916.75
2023-02-18T02:26:04.673Z,101904.56
2023-02-18T02:29:13.728Z,101910.84
2023-02-18T02:32:52.514Z,101902.28
2023-02-18T02:35:38.151Z,101902.34
2023-02-18T02:38:40.513Z,101902.34
2023-02-18T02:41:49.441Z,101899.09
2023-02-18T02:45:04.632Z,101892.91
2023-02-18T02:47:48.367Z,101896.53
2023-02-18T02:50:51.505Z,101882.63
2023-02-18T02:53:28.118Z,101874.63
2023-02-18T02:56:00.334Z,101874.78
2023-02-18T02:58:32.733Z,101872.25
2023-02-18T03:01:53.318Z,101848.84
2023-02-18T03:05:02.525Z,101846.28
2023-02-18T03:08:10.441Z,101846.16
2023-02-18T03:11:13.639Z,101843.63
2023-02-18T03:14:30.558Z,101844.59
2023-02-18T03:17:26.409Z,101834.97
2023-02-18T03:20:15.848Z,101834.13
2023-02-18T03:22:49.668Z,101836.03
2023-02-18T03:25:22.870Z,101828.22
2023-02-18T03:28:05.196Z,101822.88
2023-02-18T03:30:44.187Z,101820.28
2023-02-18T03:33:25.310Z,101814.97
2023-02-18T03:35:57.791Z,101821.97
2023-02-18T03:38:39.609Z,101823.75
2023-02-18T03:41:11.788Z,101825.44
2023-02-18T03:43:51.777Z,101827.91
2023-02-18T03:46:23.880Z,101809.38
2023-02-18T03:48:56.216Z,101809.88
2023-02-18T03:51:28.712Z,101811.50
2023-02-18T03:54:00.738Z,101807.19
2023-02-18T03:56:36.138Z,101805.38
2023-02-18T03:59:08.863Z,101799.34
2023-02-18T04:01:41.381Z,101802.00
2023-02-18T04:04:13.395Z,101806.31
2023-02-18T04:06:45.506Z,101804.47
2023-02-18T04:09:17.619Z,101801.00
2023-02-18T04:11:49.766Z,101800.84
2023-02-18T04:14:21.774Z,101792.25
2023-02-18T04:16:53.984Z,101795.75
2023-02-18T04:19:25.997Z,101785.34
2023-02-18T04:21:58.151Z,101787.81
2023-02-18T04:24:30.160Z,101777.19
2023-02-18T04:27:02.167Z,101778.06
2023-02-18T04:29:34.160Z,101768.34
2023-02-18T04:32:06.337Z,101759.25
2023-02-18T04:34:38.513Z,101754.06
2023-02-18T04:37:10.504Z,101740.91
2023-02-18T04:39:42.573Z,101739.69
2023-02-18T04:42:14.593Z,101732.50
2023-02-18T04:44:47.626Z,101725.56
2023-02-18T04:47:19.716Z,101730.81
2023-02-18T04:49:51.746Z,101737.66
2023-02-18T04:52:23.727Z,101730.78
2023-02-18T04:54:55.722Z,101727.25
2023-02-18T04:57:27.731Z,101724.59
2023-02-18T04:59:59.795Z,101732.31
2023-02-18T05:02:31.773Z,101723.81
2023-02-18T05:05:03.761Z,101719.53
2023-02-18T05:07:35.912Z,101719.69
2023-02-18T05:10:10.186Z,101709.16
2023-02-18T05:12:42.176Z,101706.53
2023-02-18T05:15:14.138Z,101701.50
2023-02-18T05:17:46.114Z,101698.81
2023-02-18T05:20:18.312Z,101691.78
2023-02-18T05:22:50.550Z,101691.00
2023-02-18T05:25:22.652Z,101681.38
2023-02-18T05:27:54.678Z,101682.13
2023-02-18T05:30:26.721Z,101674.28
2023-02-18T05:32:58.710Z,101675.13
2023-02-18T05:35:30.732Z,101671.91
2023-02-18T05:38:02.889Z,101658.97
2023-02-18T05:40:34.846Z,101647.81
2023-02-18T05:43:06.864Z,101643.50
2023-02-18T05:45:38.855Z,101633.16
2023-02-18T05:48:10.892Z,101634.03
2023-02-18T05:50:42.920Z,101620.97
2023-02-18T05:53:17.360Z,101619.22
2023-02-18T05:55:49.674Z,101604.56
2023-02-18T05:58:24.800Z,101606.38
2023-02-18T06:00:56.925Z,101609.09
2023-02-18T06:03:29.839Z,101591.84
2023-02-18T06:06:02.279Z,101588.47
2023-02-18T06:08:34.508Z,101584.19
2023-02-18T06:11:06.578Z,101572.00
2023-02-18T06:13:38.590Z,101567.69
2023-02-18T06:16:10.916Z,101568.59
2023-02-18T06:18:43.278Z,101558.06
2023-02-18T06:21:15.424Z,101557.09
2023-02-18T06:23:48.015Z,101551.97
2023-02-18T06:26:20.132Z,101539.81
2023-02-18T06:28:54.199Z,101536.31
2023-02-18T06:31:26.191Z,101536.41
2023-02-18T06:33:58.245Z,101532.22
2023-02-18T06:36:30.294Z,101526.22
2023-02-18T06:39:05.463Z,101522.81
2023-02-18T06:41:37.448Z,101516.72
2023-02-18T06:44:09.502Z,101519.31
2023-02-18T06:46:41.517Z,101519.31
2023-02-18T06:49:13.628Z,101508.94
2023-02-18T06:51:45.554Z,101498.50
2023-02-18T06:54:17.512Z,101482.94
2023-02-18T06:56:49.590Z,101477.72
2023-02-18T06:59:21.533Z,101488.00
2023-02-18T07:01:53.470Z,101474.19
2023-02-18T07:04:25.495Z,101467.34
2023-02-18T07:06:57.504Z,101453.47
2023-02-18T07:09:29.497Z,101455.03
2023-02-18T07:12:01.450Z,101443.69
2023-02-18T07:14:33.441Z,101433.34
2023-02-18T07:17:05.350Z,101421.16
2023-02-18T07:19:47.095Z,101413.31
2023-02-18T07:22:19.160Z,101397.75
2023-02-18T07:24:54.645Z,101381.38
2023-02-18T07:27:26.815Z,101383.16
2023-02-18T07:29:58.806Z,101370.16
2023-02-18T07:32:30.884Z,101374.41
2023-02-18T07:35:05.418Z,101370.16
2023-02-18T07:37:37.360Z,101373.56
2023-02-18T07:40:12.830Z,101360.66
2023-02-18T07:42:44.850Z,101349.38
2023-02-18T07:45:16.965Z,101352.16
2023-02-18T07:47:48.907Z,101341.75
2023-02-18T07:50:21.003Z,101327.88
2023-02-18T07:52:52.998Z,101321.88
2023-02-18T07:55:24.932Z,101330.63
2023-02-18T07:58:01.127Z,101322.81
2023-02-18T08:00:33.074Z,101323.78
2023-02-18T08:03:05.827Z,101319.53
2023-02-18T08:05:37.832Z,101308.28
2023-02-18T08:08:15.008Z,101303.16
2023-02-18T08:10:47.643Z,101293.59
2023-02-18T08:13:20.108Z,101287.66
2023-02-18T08:16:07.213Z,101294.78
2023-02-18T08:18:43.271Z,101284.47
2023-02-18T08:21:16.947Z,101281.16
2023-02-18T08:23:49.485Z,101274.34
2023-02-18T08:26:22.036Z,101273.53
2023-02-18T08:28:54.780Z,101271.94
2023-02-18T08:31:29.644Z,101254.63
2023-02-18T08:34:03.818Z,101252.19
2023-02-18T08:36:37.199Z,101265.31
2023-02-18T08:39:09.138Z,101253.22
2023-02-18T08:41:41.123Z,101244.50
2023-02-18T08:44:13.236Z,101232.44
2023-02-18T08:46:46.701Z,101233.31
2023-02-18T08:49:20.988Z,101228.16
2023-02-18T08:51:54.375Z,101234.25
2023-02-18T08:54:26.350Z,101231.63
2023-02-18T08:56:58.367Z,101229.13
2023-02-18T08:59:30.481Z,101224.88
2023-02-18T09:02:02.431Z,101230.94
2023-02-18T09:04:46.889Z,101220.53
2023-02-18T09:07:19.020Z,101218.81
2023-02-18T09:09:52.235Z,101220.53
2023-02-18T09:12:24.200Z,101219.69
2023-02-18T09:14:56.356Z,101216.22
2023-02-18T09:17:29.348Z,101219.75
2023-02-18T09:20:01.765Z,101207.59
2023-02-18T09:22:33.778Z,101199.78
2023-02-18T09:25:07.481Z,101199.78
2023-02-18T09:27:39.402Z,101207.59
2023-02-18T09:30:11.905Z,101195.41
2023-02-18T09:32:44.463Z,101191.94
2023-02-18T09:35:16.980Z,101201.50
2023-02-18T09:37:55.123Z,101207.66
2023-02-18T09:40:32.428Z,101197.16
2023-02-18T09:43:05.425Z,101199.75
2023-02-18T09:46:43.043Z,101192.84
2023-02-18T09:49:26.236Z,101167.59
2023-02-18T09:52:23.993Z,101176.31
2023-02-18T09:54:56.311Z,101180.66
2023-02-18T09:57:42.918Z,101188.50
2023-02-18T10:00:33.558Z,101189.38
2023-02-18T10:03:25.842Z,101187.63
2023-02-18T10:06:08.145Z,101185.03
2023-02-18T10:08:45.801Z,101192.00
2023-02-18T10:11:42.485Z,101185.03
2023-02-18T10:14:16.128Z,101181.53
2023-02-18T10:16:50.916Z,101189.38
2023-02-18T10:19:38.625Z,101189.38
2023-02-18T10:22:15.149Z,101198.09
2023-02-18T10:24:55.042Z,101203.25
2023-02-18T10:27:35.534Z,101184.97
2023-02-18T10:30:47.196Z,101202.38
2023-02-18T10:33:35.647Z,101190.22
2023-02-18T10:36:31.995Z,101186.78
2023-02-18T10:39:25.064Z,101193.72
2023-02-18T10:42:29.134Z,101195.47
2023-02-18T10:45:13.969Z,101178.06
2023-02-18T10:48:42.510Z,101185.88
2023-02-18T10:51:32.651Z,101204.16
2023-02-18T10:54:04.933Z,101189.38
2023-02-18T10:56:41.459Z,101177.19
2023-02-18T11:00:01.129Z,101164.13
2023-02-18T11:02:33.322Z,101171.97
2023-02-18T11:05:27.382Z,101177.19
2023-02-18T11:08:00.048Z,101179.81
2023-02-18T11:10:36.131Z,101158.91
2023-02-18T11:13:11.291Z,101170.22
2023-02-18T11:16:02.553Z,101158.91
2023-02-18T11:18:41.137Z,101173.72
2023-02-18T11:21:21.759Z,101169.34
2023-02-18T11:23:55.951Z,101174.56
2023-02-18T11:26:33.547Z,101178.06
2023-02-18T11:29:20.756Z,101180.69
2023-02-18T11:31:56.240Z,101180.69
2023-02-18T11:34:32.844Z,101174.53
2023-02-18T11:37:12.860Z,101186.75
2023-02-18T11:39:48.703Z,101181.53
2023-02-18T11:42:25.425Z,101178.91
2023-02-18T11:45:00.150Z,101180.69
2023-02-18T11:47:37.814Z,101183.28
2023-02-18T11:50:09.770Z,101194.63
2023-02-18T11:52:53.975Z,101187.66
2023-02-18T11:55:33.980Z,101198.09
2023-02-18T11:58:08.717Z,101182.41
2023-02-18T12:01:03.549Z,101191.13
2023-02-18T12:03:52.708Z,101187.56
2023-02-18T12:06:34.855Z,101206.78
2023-02-18T12:09:40.872Z,101213.75
2023-02-18T12:12:25.621Z,101198.94
2023-02-18T12:15:00.146Z,101204.19
2023-02-18T12:17:59.123Z,101198.09
2023-02-18T12:20:49.808Z,101202.44
2023-02-18T12:23:45.776Z,101192.88
2023-02-18T12:26:34.241Z,101203.31
2023-02-18T12:29:37.551Z,101201.56
2023-02-18T12:33:02.490Z,101204.19
2023-02-18T12:36:13.964Z,101200.72
2023-02-18T12:38:59.078Z,101212.91
2023-02-18T12:41:46.448Z,101219.88
2023-02-18T12:44:35.372Z,101212.88
2023-02-18T12:47:31.689Z,101229.44
2023-02-18T12:50:35.810Z,101225.09
2023-02-18T12:54:03.185Z,101234.66
2023-02-18T12:56:44.469Z,101226.84
2023-02-18T12:59:47.379Z,101237.28
2023-02-18T13:03:13.212Z,101242.50
2023-02-18T13:06:09.720Z,101239.91
2023-02-18T13:08:44.791Z,101244.28
2023-02-18T13:11:34.971Z,101242.53
2023-02-18T13:14:27.645Z,101247.75
2023-02-18T13:17:04.103Z,101252.13
2023-02-18T13:20:00.119Z,101247.78
2023-02-18T13:22:33.504Z,101247.78
2023-02-18T13:25:12.938Z,101247.78
2023-02-18T13:28:16.528Z,101247.78
2023-02-18T13:31:22.085Z,101243.41
2023-02-18T13:34:08.909Z,101252.16
2023-02-18T13:37:16.816Z,101250.41
2023-02-18T13:39:56.330Z,101254.75
2023-02-18T13:42:36.781Z,101250.41
2023-02-18T13:45:33.394Z,101244.31
2023-02-18T13:48:27.948Z,101262.59
2023-02-18T13:51:05.516Z,101261.72
2023-02-18T13:53:42.843Z,101273.06
2023-02-18T13:56:21.697Z,101274.78
2023-02-18T13:59:02.025Z,101274.78
2023-02-18T14:01:39.554Z,101270.41
2023-02-18T14:04:53.727Z,101278.25
2023-02-18T14:07:41.545Z,101277.38
2023-02-18T14:10:16.458Z,101272.13
2023-02-18T14:12:57.462Z,101276.47
2023-02-18T14:15:29.403Z,101279.97
2023-02-18T14:18:13.668Z,101287.81
2023-02-18T14:20:53.094Z,101291.28
2023-02-18T14:23:25.074Z,101297.38
2023-02-18T14:26:15.077Z,101306.09
2023-02-18T14:29:04.375Z,101310.44
2023-02-18T14:31:48.929Z,101316.56
2023-02-18T14:35:32.849Z,101310.44
2023-02-18T14:38:26.845Z,101316.56
2023-02-18T14:41:39.827Z,101326.13
2023-02-18T14:44:28.066Z,101320.00
2023-02-18T14:47:29.055Z,101340.91
2023-02-18T14:50:04.953Z,101333.06
2023-02-18T14:52:43.630Z,101334.84
2023-02-18T14:55:28.069Z,101329.63
2023-02-18T14:58:06.152Z,101332.25
2023-02-18T15:00:43.834Z,101342.72
2023-02-18T15:03:22.424Z,101341.88
2023-02-18T15:05:54.458Z,101340.09
2023-02-18T15:08:26.810Z,101341.84
2023-02-18T15:11:07.051Z,101349.69
2023-02-18T15:13:48.799Z,101354.00
2023-02-18T15:16:34.927Z,101359.22
2023-02-18T15:19:14.377Z,101370.53
2023-02-18T15:21:49.863Z,101368.81
2023-02-18T15:24:40.464Z,101372.31
2023-02-18T15:27:18.439Z,101368.81
2023-02-18T15:29:58.254Z,101380.13
2023-02-18T15:32:33.306Z,101387.97
2023-02-18T15:35:18.798Z,101387.97
2023-02-18T15:37:57.734Z,101383.59
2023-02-18T15:40:35.577Z,101381.88
2023-02-18T15:43:08.373Z,101378.38
2023-02-18T15:45:44.239Z,101387.06
2023-02-18T15:48:47.560Z,101391.41
2023-02-18T15:51:25.552Z,101399.22
2023-02-18T15:54:01.749Z,101395.78
2023-02-18T15:56:41.231Z,101401.03
2023-02-18T15:59:26.525Z,101401.91
2023-02-18T16:02:19.324Z,101409.72
2023-02-18T16:05:05.102Z,101406.13
2023-02-18T16:07:52.526Z,101407.06
2023-02-18T16:10:36.311Z,101413.97
2023-02-18T16:13:08.555Z,101425.34
2023-02-18T16:15:43.889Z,101425.25
2023-02-18T16:18:29.395Z,101420.00
2023-02-18T16:21:31.167Z,101443.50
2023-02-18T16:24:27.939Z,101434.81
2023-02-18T16:27:03.492Z,101439.94
2023-02-18T16:29:41.387Z,101439.94
2023-02-18T16:32:13.551Z,101446.00
2023-02-18T16:34:48.727Z,101452.06
2023-02-18T16:37:38.716Z,101465.94
2023-02-18T16:40:30.379Z,101462.41
2023-02-18T16:43:17.998Z,101457.94
2023-02-18T16:45:57.380Z,101457.94
2023-02-18T16:48:37.235Z,101472.72
2023-02-18T16:51:26.211Z,101466.63
2023-02-18T16:53:58.952Z,101461.38
2023-02-18T16:56:35.546Z,101471.03
2023-02-18T16:59:07.988Z,101477.97
2023-02-18T17:01:44.983Z,101493.63
2023-02-18T17:04:20.071Z,101489.28
2023-02-18T17:06:52.174Z,101493.56
2023-02-18T17:09:27.277Z,101506.56
2023-02-18T17:12:00.016Z,101512.56
2023-02-18T17:14:32.455Z,101526.47
2023-02-18T17:17:11.497Z,101506.34
2023-02-18T17:19:43.710Z,101511.50
2023-02-18T17:22:16.174Z,101512.34
2023-02-18T17:24:48.300Z,101521.91
2023-02-18T17:27:20.374Z,101520.16
2023-02-18T17:29:52.415Z,101527.97
2023-02-18T17:32:24.507Z,101540.13
2023-02-18T17:34:56.600Z,101542.78
2023-02-18T17:37:28.604Z,101536.72
2023-02-18T17:40:00.723Z,101537.69
2023-02-18T17:42:35.611Z,101549.06
2023-02-18T17:45:21.283Z,101551.66
2023-02-18T17:47:53.350Z,101560.44
2023-02-18T17:50:27.520Z,101564.72
2023-02-18T17:52:59.687Z,101569.09
2023-02-18T17:55:37.323Z,101562.19
2023-02-18T17:58:10.520Z,101571.88
2023-02-18T18:00:50.158Z,101578.81
2023-02-18T18:03:23.067Z,101584.09
2023-02-18T18:05:57.635Z,101583.22
2023-02-18T18:08:30.945Z,101578.72
2023-02-18T18:11:03.140Z,101581.47
2023-02-18T18:13:38.813Z,101595.41
2023-02-18T18:16:14.698Z,101587.56
2023-02-18T18:18:46.903Z,101590.94
2023-02-18T18:21:34.667Z,101597.09
2023-02-18T18:24:07.019Z,101597.09
2023-02-18T18:26:39.516Z,101594.50
2023-02-18T18:29:11.650Z,101595.47
2023-02-18T18:31:43.941Z,101600.69
2023-02-18T18:34:17.996Z,101605.03
2023-02-18T18:36:50.091Z,101619.84
2023-02-18T18:39:22.094Z,101623.28
2023-02-18T18:41:54.263Z,101625.91
2023-02-18T18:44:26.854Z,101620.56
2023-02-18T18:46:59.282Z,101631.88
2023-02-18T18:49:31.356Z,101638.00
2023-02-18T18:52:03.960Z,101635.38
2023-02-18T18:54:36.147Z,101626.69
2023-02-18T18:57:08.259Z,101631.03
2023-02-18T18:59:42.293Z,101631.94
2023-02-18T19:02:16.649Z,101631.94
2023-02-18T19:04:48.618Z,101651.97
2023-02-18T19:07:20.739Z,101646.69
2023-02-18T19:09:52.932Z,101646.66
2023-02-18T19:12:25.055Z,101648.31
2023-02-18T19:14:57.025Z,101643.88
2023-02-18T19:17:29.170Z,101642.97
2023-02-18T19:20:01.219Z,101650.75
2023-02-18T19:22:33.593Z,101652.41
2023-02-18T19:25:06.515Z,101668.09
2023-02-18T19:27:43.934Z,101665.47
2023-02-18T19:30:23.125Z,101667.13
2023-02-18T19:32:58.111Z,101665.34
2023-02-18T19:35:31.656Z,101664.38
2023-02-18T19:38:03.792Z,101665.25
2023-02-18T19:40:36.340Z,101660.94
2023-02-18T19:43:09.539Z,101660.03
2023-02-18T19:45:47.137Z,101663.59
2023-02-18T19:48:20.951Z,101647.97
2023-02-18T19:50:54.747Z,101654.06
2023-02-18T19:53:26.790Z,101646.09
2023-02-18T19:56:02.453Z,101654.00
2023-02-18T19:58:35.643Z,101650.53
2023-02-18T20:01:16.675Z,101656.63
2023-02-18T20:03:48.797Z,101652.28
2023-02-18T20:06:22.044Z,101666.88
2023-02-18T20:08:55.209Z,101653.88
2023-02-18T20:11:27.400Z,101661.66
2023-02-18T20:13:59.432Z,101654.56
2023-02-18T20:16:31.412Z,101651.13
2023-02-18T20:19:03.665Z,101658.97
2023-02-18T20:21:35.930Z,101650.25
2023-02-18T20:24:10.679Z,101648.56
2023-02-18T20:26:42.892Z,101659.84
2023-02-18T20:29:15.107Z,101659.84
2023-02-18T20:31:47.332Z,101662.50
2023-02-18T20:34:23.473Z,101653.88
2023-02-18T20:36:56.031Z,101649.56
2023-02-18T20:39:28.534Z,101642.63
2023-02-18T20:42:08.063Z,101652.19
2023-02-18T20:44:47.377Z,101649.56
2023-02-18T20:47:19.496Z,101650.50
2023-02-18T20:49:51.788Z,101653.13
2023-02-18T20:52:23.991Z,101646.97
2023-02-18T20:54:55.997Z,101650.50
2023-02-18T20:57:28.310Z,101648.59
2023-02-18T21:00:00.402Z,101647.59
2023-02-18T21:02:32.454Z,101643.16
2023-02-18T21:05:05.873Z,101637.78
2023-02-18T21:07:37.956Z,101641.16
2023-02-18T21:10:10.047Z,101640.22
2023-02-18T21:12:43.433Z,101644.50
2023-02-18T21:15:15.946Z,101644.47
2023-02-18T21:17:48.314Z,101640.00
2023-02-18T21:20:20.438Z,101632.22
2023-02-18T21:22:54.202Z,101634.72
2023-02-18T21:25:27.531Z,101631.97
2023-02-18T21:27:59.598Z,101633.72
2023-02-18T21:30:36.873Z,101640.69
2023-02-18T21:33:08.925Z,101626.75
2023-02-18T21:35:41.601Z,101616.25
2023-02-18T21:38:13.580Z,101631.06
2023-02-18T21:40:45.921Z,101629.28
2023-02-18T21:43:17.959Z,101624.09
2023-02-18T21:45:49.965Z,101621.50
2023-02-18T21:48:40.894Z,101626.66
2023-02-18T21:51:33.013Z,101625.75
2023-02-18T21:54:05.227Z,101614.44
2023-02-18T21:56:37.432Z,101614.44
2023-02-18T21:59:09.509Z,101618.72
2023-02-18T22:01:41.724Z,101619.59
2023-02-18T22:04:14.109Z,101623.94
2023-02-18T22:06:46.411Z,101626.38
2023-02-18T22:09:18.898Z,101629.75
2023-02-18T22:11:51.112Z,101625.25
2023-02-18T22:14:23.722Z,101617.94
2023-02-18T22:16:56.038Z,101612.66
2023-02-18T22:19:28.145Z,101605.72
2023-02-18T22:22:02.615Z,101603.06
2023-02-18T22:24:35.425Z,101610.84
2023-02-18T22:27:07.657Z,101603.81
2023-02-18T22:29:39.874Z,101607.16
2023-02-18T22:32:12.031Z,101606.38
2023-02-18T22:34:44.123Z,101611.53
2023-02-18T22:37:16.204Z,101600.28
2023-02-18T22:39:49.728Z,101592.47
2023-02-18T22:42:21.814Z,101585.53
2023-02-18T22:44:53.894Z,101585.59
2023-02-18T22:47:25.976Z,101582.09
2023-02-18T22:49:58.047Z,101571.75
2023-02-18T22:52:30.275Z,101577.00
2023-02-18T22:55:02.297Z,101575.25
2023-02-18T22:57:34.409Z,101572.63
2023-02-18T23:00:10.738Z,101571.72
2023-02-18T23:02:42.905Z,101560.38
2023-02-18T23:05:15.017Z,101562.97
2023-02-18T23:07:47.094Z,101568.97
2023-02-18T23:10:19.339Z,101562.00
2023-02-18T23:12:51.337Z,101550.63
2023-02-18T23:15:23.418Z,101552.25
2023-02-18T23:17:55.483Z,101540.91
2023-02-18T23:20:46.329Z,101548.75
2023-02-18T23:23:18.452Z,101550.41
2023-02-18T23:25:50.399Z,101538.28
2023-02-18T23:28:22.384Z,101529.59
2023-02-18T23:30:54.347Z,101529.50
2023-02-18T23:33:26.771Z,101520.78
2023-02-18T23:36:12.960Z,101527.69
2023-02-18T23:38:54.460Z,101517.22
2023-02-18T23:41:27.823Z,101522.44
2023-02-18T23:43:59.876Z,101527.59
2023-02-18T23:46:32.208Z,101521.47
2023-02-18T23:49:05.322Z,101516.13
2023-02-18T23:51:37.305Z,101532.56
2023-02-18T23:54:10.842Z,101529.94
2023-02-18T23:56:44.340Z,101535.13
2023-02-18T23:59:16.949Z,101524.75
